Time;durP1;ratioP1;P1;durP2;ratioP2;P2;SDS_P1;SDS_P2;PMS_P1;PMS_P2;Temp;Humidity;BMP_temperature;BMP_pressure;BME280_temperature;BME280_humidity;BME280_pressure;Samples;Min_cycle;Max_cycle;Signal;HPM_P1;HPM_P2
2021/12/25 00:02:57;;;;;;;0.20;0.20;;;;;;;8.69;100.00;98519.75;5018856;28;20148;-60
2021/12/25 00:06:01;;;;;;;0.10;0.10;;;;;;;8.66;100.00;98523.53;5029348;28;20061;-60
2021/12/25 00:09:05;;;;;;;0.50;0.20;;;;;;;8.57;100.00;98531.28;5029900;28;20060;-60
2021/12/25 00:12:09;;;;;;;0.63;0.25;;;;;;;8.69;100.00;98525.31;5029394;28;20056;-60
2021/12/25 00:15:12;;;;;;;0.20;0.20;;;;;;;8.71;100.00;98522.78;5030227;28;20060;-60
2021/12/25 00:18:16;;;;;;;0.73;0.35;;;;;;;8.72;100.00;98527.09;5036288;28;20064;-60
2021/12/25 00:21:20;;;;;;;0.10;0.10;;;;;;;8.76;100.00;98527.63;5044590;28;20051;-59
2021/12/25 00:24:23;;;;;;;0.10;0.10;;;;;;;8.80;100.00;98525.38;5033513;28;20111;-60
2021/12/25 00:30:41;;;;;;;0.10;0.10;;;;;;;8.77;100.00;98523.59;5050262;28;20405;-60
2021/12/25 00:36:49;;;;;;;0.17;0.17;;;;;;;8.89;100.00;98532.75;5042717;28;20591;-60
2021/12/25 00:39:54;;;;;;;0.35;0.10;;;;;;;8.96;100.00;98538.63;5049894;28;20076;-60
2021/12/25 00:42:58;;;;;;;0.10;0.10;;;;;;;8.91;100.00;98542.09;5048150;28;20076;-60
2021/12/25 00:46:02;;;;;;;0.98;0.20;;;;;;;8.94;100.00;98543.13;5049436;28;20498;-60
2021/12/25 00:49:06;;;;;;;0.40;0.20;;;;;;;8.89;100.00;98536.28;5048000;28;20064;-60
2021/12/25 00:52:09;;;;;;;0.40;0.28;;;;;;;8.93;100.00;98541.59;5048737;28;20064;-60
2021/12/25 00:55:12;;;;;;;0.10;0.10;;;;;;;8.89;100.00;98552.94;5045688;28;20638;-60
2021/12/25 00:58:16;;;;;;;1.23;0.52;;;;;;;8.87;100.00;98547.13;5046713;28;20397;-60
2021/12/25 01:01:20;;;;;;;0.40;0.25;;;;;;;8.86;100.00;98548.38;5045710;28;20063;-60
2021/12/25 01:04:24;;;;;;;0.10;0.10;;;;;;;8.83;100.00;98537.50;5048276;28;20384;-60
2021/12/25 01:07:28;;;;;;;0.30;0.20;;;;;;;8.81;100.00;98545.59;5048855;28;20063;-60
2021/12/25 01:10:33;;;;;;;0.20;0.10;;;;;;;8.83;100.00;98541.06;5047978;28;20060;-60
2021/12/25 01:13:43;;;;;;;0.10;0.10;;;;;;;8.91;100.00;98544.88;5045942;28;20064;-60
2021/12/25 01:21:05;;;;;;;0.30;0.30;;;;;;;8.95;100.00;98550.97;5052821;28;20056;-60
2021/12/25 01:40:48;;;;;;;0.38;0.30;;;;;;;8.72;100.00;98562.41;5038438;28;20448;-60
2021/12/25 01:50:33;;;;;;;0.20;0.20;;;;;;;8.71;100.00;98558.09;5051583;28;20052;-60
2021/12/25 01:53:37;;;;;;;0.45;0.45;;;;;;;8.66;100.00;98562.41;5052619;28;20060;-59
2021/12/25 01:56:40;;;;;;;1.00;0.13;;;;;;;8.65;100.00;98560.09;5052799;28;20055;-59
2021/12/25 01:59:44;;;;;;;1.08;0.38;;;;;;;8.68;100.00;98556.34;5051822;28;20650;-60
2021/12/25 02:02:49;;;;;;;0.10;0.10;;;;;;;8.66;100.00;98554.06;5050589;28;20496;-60
2021/12/25 02:05:54;;;;;;;0.10;0.10;;;;;;;8.70;100.00;98557.38;5048885;28;20400;-59
2021/12/25 02:08:57;;;;;;;0.20;0.20;;;;;;;8.66;100.00;98562.41;5052287;28;20051;-59
2021/12/25 02:12:01;;;;;;;0.20;0.20;;;;;;;8.60;100.00;98572.66;5050154;28;20512;-52
2021/12/25 02:15:11;;;;;;;0.10;0.10;;;;;;;8.59;100.00;98562.84;5043471;28;20075;-51
2021/12/25 02:18:23;;;;;;;0.32;0.20;;;;;;;8.56;100.00;98561.03;5052097;28;20067;-52
2021/12/25 02:21:45;;;;;;;0.15;0.13;;;;;;;8.55;100.00;98567.09;5044588;28;20055;-52
2021/12/25 02:24:49;;;;;;;0.30;0.30;;;;;;;8.49;100.00;98558.72;5051301;28;20068;-52
2021/12/25 02:27:52;;;;;;;0.10;0.10;;;;;;;8.50;100.00;98554.69;5051553;28;20052;-52
2021/12/25 02:31:00;;;;;;;0.10;0.10;;;;;;;8.48;100.00;98561.97;5052266;28;20048;-52
2021/12/25 02:34:04;;;;;;;0.28;0.28;;;;;;;8.33;100.00;98567.66;5044872;28;20048;-52
2021/12/25 02:37:07;;;;;;;0.68;0.38;;;;;;;8.45;100.00;98583.16;5047086;28;20160;-52
2021/12/25 02:40:13;;;;;;;0.10;0.10;;;;;;;8.35;100.00;98582.56;5051056;28;20056;-52
2021/12/25 02:43:17;;;;;;;0.28;0.28;;;;;;;8.40;100.00;98584.63;5042356;28;20060;-52
2021/12/25 02:46:22;;;;;;;2.50;0.28;;;;;;;8.43;100.00;98593.97;5051031;28;20107;-52
2021/12/25 02:49:25;;;;;;;1.60;0.20;;;;;;;8.53;100.00;98586.25;5051998;28;20048;-52
2021/12/25 02:52:29;;;;;;;0.10;0.10;;;;;;;8.57;100.00;98587.56;5050599;28;20051;-52
2021/12/25 02:55:33;;;;;;;1.40;0.38;;;;;;;8.60;100.00;98581.00;5045758;28;20052;-52
2021/12/25 03:12:00;;;;;;;0.20;0.20;;;;;;;8.65;100.00;98582.28;4987609;28;20397;-55
2021/12/25 03:15:14;;;;;;;0.10;0.10;;;;;;;8.70;100.00;98576.81;4984002;28;20065;-57
2021/12/25 03:18:23;;;;;;;0.32;0.32;;;;;;;8.72;100.00;98577.06;4970940;28;20050;-55
2021/12/25 03:21:26;;;;;;;0.40;0.38;;;;;;;8.68;100.00;98586.88;4980213;28;20505;-53
2021/12/25 03:24:30;;;;;;;0.10;0.10;;;;;;;8.61;100.00;98588.09;4981759;28;20066;-55
2021/12/25 03:27:41;;;;;;;0.15;0.15;;;;;;;8.62;100.00;98584.03;4974103;28;20062;-55
2021/12/25 03:30:45;;;;;;;;;;;;;;;8.58;100.00;98594.59;4983568;28;20054;-48
2021/12/25 03:33:52;;;;;;;0.10;0.10;;;;;;;8.52;100.00;98590.25;4983447;28;19917;-49
2021/12/25 03:36:55;;;;;;;0.10;0.10;;;;;;;8.45;100.00;98585.91;4982031;28;20065;-50
2021/12/25 03:39:59;;;;;;;0.20;0.20;;;;;;;8.39;100.00;98580.34;4977893;28;20056;-49
2021/12/25 03:43:03;;;;;;;0.10;0.10;;;;;;;8.44;100.00;98583.66;4981114;28;20525;-47
2021/12/25 03:46:10;;;;;;;0.10;0.10;;;;;;;8.57;100.00;98579.22;4984029;28;20494;-49
2021/12/25 03:49:26;;;;;;;0.10;0.10;;;;;;;8.59;100.00;98590.59;4984309;28;20069;-49
2021/12/25 03:59:16;;;;;;;0.63;0.13;;;;;;;8.58;100.00;98594.59;4970954;28;20061;-48
2021/12/25 04:02:25;;;;;;;2.28;0.20;;;;;;;8.55;100.00;98601.16;4983021;28;20053;-50
2021/12/25 04:05:31;;;;;;;7.07;0.63;;;;;;;8.57;100.00;98604.19;4983752;28;20398;-49
2021/12/25 04:08:41;;;;;;;0.63;0.10;;;;;;;8.56;100.00;98607.44;4983842;28;20062;-49
2021/12/25 04:11:45;;;;;;;0.10;0.10;;;;;;;8.46;100.00;98609.66;4983965;28;20501;-50
2021/12/25 04:14:48;;;;;;;0.20;0.10;;;;;;;8.48;100.00;98615.47;4983656;28;20497;-50
2021/12/25 04:17:52;;;;;;;0.10;0.10;;;;;;;8.30;100.00;98618.56;4983656;28;20061;-49
2021/12/25 04:20:55;;;;;;;0.15;0.15;;;;;;;8.38;100.00;98616.91;4983291;28;20414;-50
2021/12/25 04:23:59;;;;;;;0.10;0.10;;;;;;;8.39;100.00;98623.94;4970783;28;20070;-50
2021/12/25 04:27:05;;;;;;;0.10;0.10;;;;;;;8.35;100.00;98632.50;4970190;28;20050;-50
2021/12/25 04:30:33;;;;;;;0.10;0.10;;;;;;;8.34;100.00;98636.50;4969595;28;20046;-50
2021/12/25 05:04:12;;;;;;;0.10;0.10;;;;;;;8.35;100.00;98643.59;4969995;28;20062;-50
2021/12/25 05:07:16;;;;;;;0.15;0.15;;;;;;;8.32;100.00;98654.91;4970487;28;20058;-51
2021/12/25 05:10:19;;;;;;;0.10;0.10;;;;;;;8.34;100.00;98655.94;4970249;28;20041;-53
2021/12/25 05:13:23;;;;;;;0.32;0.32;;;;;;;8.32;100.00;98652.13;4970430;28;20058;-51
2021/12/25 05:16:26;;;;;;;0.10;0.10;;;;;;;8.32;100.00;98655.66;4970309;28;20054;-51
2021/12/25 05:19:30;;;;;;;0.10;0.10;;;;;;;8.18;100.00;98659.28;4968343;28;20049;-48
2021/12/25 05:22:33;;;;;;;0.10;0.10;;;;;;;8.25;100.00;98660.88;4970535;28;20065;-50
2021/12/25 05:25:37;;;;;;;0.30;0.25;;;;;;;8.21;100.00;98661.06;4968617;28;20066;-50
2021/12/25 05:28:44;;;;;;;0.10;0.10;;;;;;;8.30;100.00;98668.50;4970622;28;20054;-50
2021/12/25 05:31:47;;;;;;;0.10;0.00;;;;;;;8.28;100.00;98668.22;4965112;28;20078;-50
2021/12/25 05:34:50;;;;;;;0.10;0.10;;;;;;;8.26;100.00;98668.72;4968949;28;20063;-50
2021/12/25 05:37:58;;;;;;;0.10;0.10;;;;;;;8.23;100.00;98664.09;4970395;28;20505;-50
2021/12/25 05:41:03;;;;;;;0.25;0.15;;;;;;;8.31;100.00;98670.03;4969885;28;20058;-50
2021/12/25 05:44:07;;;;;;;0.10;0.10;;;;;;;8.17;100.00;98666.06;4957028;28;20070;-50
2021/12/25 05:47:10;;;;;;;1.00;0.73;;;;;;;8.19;100.00;98663.56;4969098;28;20399;-49
2021/12/25 05:50:14;;;;;;;0.10;0.10;;;;;;;8.23;100.00;98664.09;4958046;28;20066;-49
2021/12/25 06:06:47;;;;;;;6.00;0.63;;;;;;;8.14;100.00;98667.03;5075305;27;20379;-47
2021/12/25 06:09:51;;;;;;;0.90;0.50;;;;;;;8.16;100.00;98674.88;5065575;28;20056;-47
2021/12/25 06:12:58;;;;;;;0.20;0.10;;;;;;;8.14;100.00;98657.97;5067119;28;20574;-47
2021/12/25 06:16:01;;;;;;;0.10;0.10;;;;;;;8.17;100.00;98668.06;5061044;28;20392;-47
2021/12/25 06:19:05;;;;;;;0.20;0.20;;;;;;;8.18;100.00;98677.94;5066956;28;20059;-47
2021/12/25 06:34:18;;;;;;;4.40;0.50;;;;;;;8.27;100.00;98694.44;6148886;22;1369797;-59
2021/12/25 06:37:24;;;;;;;0.22;0.22;;;;;;;8.28;100.00;98693.19;6189464;23;20036;-59
2021/12/25 06:40:27;;;;;;;0.20;0.20;;;;;;;8.39;100.00;98688.53;6191513;23;20080;-59
2021/12/25 06:43:31;;;;;;;0.10;0.10;;;;;;;8.36;100.00;98683.94;6190311;22;20032;-59
2021/12/25 06:46:35;;;;;;;0.70;0.65;;;;;;;8.29;100.00;98689.16;6191257;23;20077;-59
2021/12/25 06:49:38;;;;;;;0.10;0.10;;;;;;;8.25;100.00;98705.25;6190842;23;20352;-59
2021/12/25 06:52:45;;;;;;;4.57;0.50;;;;;;;8.24;100.00;98698.94;6190945;23;20032;-59
2021/12/25 06:55:49;;;;;;;0.20;0.20;;;;;;;8.30;100.00;98699.00;6190544;23;20047;-59
2021/12/25 06:58:53;;;;;;;0.10;0.10;;;;;;;8.23;100.00;98700.16;6190420;23;20047;-59
2021/12/25 07:01:56;;;;;;;0.10;0.10;;;;;;;8.02;100.00;98703.44;6190317;23;20032;-59
2021/12/25 07:05:00;;;;;;;0.10;0.10;;;;;;;7.89;100.00;98711.34;6190817;23;20326;-59
2021/12/25 07:08:04;;;;;;;0.10;0.10;;;;;;;7.86;100.00;98709.56;6190785;23;20028;-60
2021/12/25 07:11:08;;;;;;;0.30;0.30;;;;;;;7.81;100.00;98724.09;6190749;23;20027;-59
2021/12/25 07:14:12;;;;;;;13.95;0.50;;;;;;;7.76;100.00;98719.22;6219894;23;20023;-59
2021/12/25 07:29:14;;;;;;;0.30;0.30;;;;;;;7.75;100.00;98740.66;6143554;22;1439557;-54
2021/12/25 07:32:18;;;;;;;0.50;0.50;;;;;;;7.76;100.00;98744.19;6173034;23;20048;-55
2021/12/25 07:35:22;;;;;;;0.20;0.20;;;;;;;7.67;100.00;98752.63;6174433;23;20032;-54
2021/12/25 07:38:26;;;;;;;0.52;0.52;;;;;;;7.58;100.00;98743.19;6146794;23;20036;-53
2021/12/25 07:53:17;;;;;;;0.20;0.20;;;;;;;7.52;100.00;98747.88;6125232;22;1525705;-56
2021/12/25 07:56:25;;;;;;;1.08;0.20;;;;;;;7.52;100.00;98750.66;6227821;22;20019;-56
2021/12/25 07:59:28;;;;;;;0.10;0.10;;;;;;;7.44;100.00;98762.63;6150992;23;20476;-56
2021/12/25 08:02:31;;;;;;;0.10;0.10;;;;;;;7.41;100.00;98763.56;6146572;23;20678;-56
2021/12/25 08:05:36;;;;;;;0.20;0.20;;;;;;;7.31;100.00;98765.69;6201334;23;20031;-55
2021/12/25 08:08:40;;;;;;;0.20;0.20;;;;;;;7.35;100.00;98771.03;6173773;23;20023;-55
2021/12/25 08:11:43;;;;;;;0.10;0.10;;;;;;;7.36;100.00;98778.84;6218205;23;20027;-55
2021/12/25 08:14:46;;;;;;;0.10;0.10;;;;;;;7.30;100.00;98780.78;6159169;23;20081;-55
2021/12/25 08:17:51;;;;;;;0.10;0.10;;;;;;;7.28;100.00;98783.25;6183673;23;20027;-55
2021/12/25 08:20:55;;;;;;;0.10;0.00;;;;;;;7.21;100.00;98794.72;6132153;23;20114;-55
2021/12/25 08:37:35;;;;;;;0.28;0.28;;;;;;;7.06;100.00;98796.00;6196429;22;1335975;-47
2021/12/25 08:40:40;;;;;;;0.30;0.10;;;;;;;6.99;100.00;98802.66;6230774;22;20027;-49
2021/12/25 08:43:48;;;;;;;0.93;0.38;;;;;;;6.90;100.00;98794.44;6205584;22;20357;-47
2021/12/25 08:46:56;;;;;;;8.05;1.70;;;;;;;6.80;100.00;98796.53;6167591;23;20028;-47
2021/12/25 08:50:00;;;;;;;0.30;0.20;;;;;;;6.78;100.00;98804.53;6215618;23;20023;-47
2021/12/25 08:53:04;;;;;;;0.50;0.50;;;;;;;6.70;100.00;98808.16;6194454;23;20023;-47
2021/12/25 08:56:08;;;;;;;0.22;0.22;;;;;;;6.68;100.00;98810.63;6208539;23;20027;-55
2021/12/25 08:59:11;;;;;;;2.05;0.50;;;;;;;6.66;100.00;98813.13;6221762;22;20076;-53
2021/12/25 09:02:16;;;;;;;0.30;0.28;;;;;;;6.71;100.00;98804.91;6205802;23;20027;-54
2021/12/25 09:05:20;;;;;;;0.15;0.15;;;;;;;6.74;100.00;98812.28;6179707;23;20032;-54
2021/12/25 09:08:24;;;;;;;0.20;0.20;;;;;;;6.71;100.00;98801.41;6216112;23;20360;-54
2021/12/25 09:11:27;;;;;;;0.28;0.28;;;;;;;6.69;100.00;98806.66;6203877;23;20031;-54
2021/12/25 09:14:31;;;;;;;0.20;0.20;;;;;;;6.66;100.00;98813.13;6202062;23;20031;-54
2021/12/25 09:17:34;;;;;;;0.10;0.10;;;;;;;6.62;100.00;98813.31;6190672;23;20468;-54
2021/12/25 09:20:38;;;;;;;0.55;0.50;;;;;;;6.52;100.00;98831.19;6154415;23;20023;-54
2021/12/25 09:23:41;;;;;;;0.10;0.10;;;;;;;6.55;100.00;98832.25;6202614;23;20036;-54
2021/12/25 09:26:45;;;;;;;0.40;0.28;;;;;;;6.55;100.00;98826.72;6217606;23;20032;-55
2021/12/25 09:29:48;;;;;;;1.75;0.57;;;;;;;6.55;100.00;98824.72;6158768;23;20024;-54
2021/12/25 09:32:53;;;;;;;0.20;0.20;;;;;;;6.59;100.00;98828.06;6201654;23;20028;-54
2021/12/25 09:35:57;;;;;;;1.00;0.47;;;;;;;6.64;100.00;98840.50;6217527;23;20055;-55
2021/12/25 09:39:04;;;;;;;2.58;0.90;;;;;;;6.60;100.00;98820.56;6182378;23;20039;-54
2021/12/25 09:42:08;;;;;;;0.10;0.10;;;;;;;6.60;100.00;98829.63;6146623;23;20031;-56
2021/12/25 09:45:12;;;;;;;1.75;0.43;;;;;;;6.64;100.00;98827.44;6160044;23;20028;-56
2021/12/25 09:48:16;;;;;;;4.38;0.63;;;;;;;6.68;100.00;98821.69;6217643;23;20495;-56
2021/12/25 09:51:21;;;;;;;0.10;0.10;;;;;;;6.71;100.00;98820.75;6200197;23;20341;-56
2021/12/25 09:54:27;;;;;;;0.30;0.30;;;;;;;6.69;100.00;98817.72;6208212;23;20028;-55
2021/12/25 09:57:30;;;;;;;0.15;0.15;;;;;;;6.66;100.00;98824.94;6199539;23;20032;-56
2021/12/25 10:00:40;;;;;;;10.70;1.10;;;;;;;6.65;100.00;98817.09;6228790;23;20027;-56
2021/12/25 10:03:45;;;;;;;4.47;0.47;;;;;;;6.68;100.00;98816.16;6222272;23;20123;-56
2021/12/25 10:06:49;;;;;;;0.20;0.20;;;;;;;6.72;100.00;98822.28;6176783;23;20040;-56
2021/12/25 10:09:59;;;;;;;0.10;0.10;;;;;;;6.62;100.00;98818.06;6223523;23;20031;-55
2021/12/25 10:13:02;;;;;;;0.40;0.25;;;;;;;6.58;100.00;98823.78;6168578;23;20079;-56
2021/12/25 10:16:26;;;;;;;1.10;1.00;;;;;;;6.59;100.00;98819.00;6190946;23;20023;-57
2021/12/25 10:19:31;;;;;;;0.10;0.10;;;;;;;6.63;100.00;98831.41;6195330;23;20028;-56
2021/12/25 10:23:04;;;;;;;0.82;0.35;;;;;;;6.68;100.00;98833.53;6168830;23;20023;-57
2021/12/25 10:26:08;;;;;;;0.20;0.20;;;;;;;6.70;100.00;98836.59;6149992;23;20083;-57
2021/12/25 10:29:26;;;;;;;8.15;0.80;;;;;;;6.73;100.00;98851.50;6212355;23;20027;-57
2021/12/25 10:32:30;;;;;;;0.10;0.10;;;;;;;6.75;100.00;98849.00;6177135;23;20031;-57
2021/12/25 10:35:37;;;;;;;0.50;0.17;;;;;;;6.72;100.00;98858.25;6176630;23;20020;-58
2021/12/25 10:38:40;;;;;;;0.28;0.28;;;;;;;6.73;100.00;98840.41;6153954;23;20443;-55
2021/12/25 10:41:56;;;;;;;0.20;0.20;;;;;;;6.64;100.00;98848.78;6068994;23;20028;-58
2021/12/25 10:45:05;;;;;;;0.35;0.35;;;;;;;6.67;100.00;98839.56;6209749;23;20028;-58
2021/12/25 10:48:10;;;;;;;0.50;0.32;;;;;;;6.66;100.00;98833.25;6158849;23;20043;-57
2021/12/25 10:51:26;;;;;;;0.25;0.25;;;;;;;6.70;100.00;98831.06;6209374;23;20040;-47
2021/12/25 10:54:40;;;;;;;0.70;0.43;;;;;;;6.80;100.00;98828.97;6192731;23;20028;-49
2021/12/25 10:57:46;;;;;;;55.25;18.80;;;;;;;6.85;100.00;98833.84;6170389;23;20427;-47
2021/12/25 11:00:55;;;;;;;51.42;18.85;;;;;;;6.89;100.00;98823.34;6137987;23;20036;-47
2021/12/25 11:03:59;;;;;;;11.57;5.00;;;;;;;6.93;100.00;98832.22;6211219;23;20047;-49
2021/12/25 11:07:16;;;;;;;12.27;1.38;;;;;;;7.03;100.00;98825.38;6218705;22;20134;-49
2021/12/25 11:10:20;;;;;;;152.40;35.70;;;;;;;7.00;100.00;98823.56;6196854;23;20500;-50
2021/12/25 11:13:38;;;;;;;86.30;15.60;;;;;;;6.95;100.00;98821.47;6183759;23;20028;-49
2021/12/25 11:16:42;;;;;;;3.08;2.67;;;;;;;6.91;100.00;98812.56;6210341;23;20171;-49
2021/12/25 11:19:56;;;;;;;0.77;0.70;;;;;;;6.79;100.00;98810.84;6160482;23;20373;-49
2021/12/25 11:23:02;;;;;;;8.85;2.75;;;;;;;6.75;100.00;98810.28;6144410;23;20357;-49
2021/12/25 11:26:06;;;;;;;7.93;2.05;;;;;;;6.72;100.00;98811.22;6141268;23;20036;-49
2021/12/25 11:29:13;;;;;;;9.95;1.30;;;;;;;6.73;100.00;98808.00;6122485;23;20027;-49
2021/12/25 11:32:18;;;;;;;1.10;0.55;;;;;;;6.69;100.00;98801.13;6188105;23;20481;-49
2021/12/25 11:35:23;;;;;;;1.40;0.93;;;;;;;6.62;100.00;98787.66;6210115;23;20124;-49
2021/12/25 11:38:26;;;;;;;0.95;0.80;;;;;;;6.58;100.00;98785.03;6227642;23;20027;-49
2021/12/25 11:41:31;;;;;;;1.02;0.95;;;;;;;6.53;100.00;98793.25;6176129;23;20459;-49
2021/12/25 11:44:43;;;;;;;2.05;0.65;;;;;;;6.53;100.00;98787.72;6214003;23;20027;-49
2021/12/25 11:47:48;;;;;;;;;;;;;;;6.57;100.00;98788.28;6098877;23;20029;-49
2021/12/25 11:50:52;;;;;;;0.38;0.38;;;;;;;6.50;100.00;98794.19;6094570;23;20406;-49
2021/12/25 12:00:13;;;;;;;0.55;0.55;;;;;;;6.54;100.00;98792.78;6074518;23;20069;-49
2021/12/25 12:03:41;;;;;;;1.27;0.80;;;;;;;6.59;100.00;98794.13;6142439;23;20036;-49
2021/12/25 12:09:53;;;;;;;0.38;0.38;;;;;;;6.62;100.00;98784.88;5970089;23;20027;-49
2021/12/25 12:13:22;;;;;;;0.40;0.40;;;;;;;6.66;100.00;98785.44;6046271;23;20084;-49
2021/12/25 12:16:48;;;;;;;15.70;0.95;;;;;;;6.65;100.00;98790.22;6005245;23;20026;-49
2021/12/25 12:19:54;;;;;;;1.95;1.10;;;;;;;6.63;100.00;98786.38;6077387;23;20032;-49
2021/12/25 12:23:04;;;;;;;0.38;0.38;;;;;;;6.62;100.00;98784.88;6114151;23;20032;-49
2021/12/25 12:26:12;;;;;;;5.57;0.63;;;;;;;6.62;100.00;98771.81;6110137;23;20037;-49
2021/12/25 12:29:37;;;;;;;0.40;0.17;;;;;;;6.61;100.00;98775.81;6110865;23;20032;-49
2021/12/25 12:32:43;;;;;;;1.48;0.65;;;;;;;6.58;100.00;98773.25;6067522;23;20033;-49
2021/12/25 12:35:49;;;;;;;0.60;0.55;;;;;;;6.46;100.00;98772.25;6066575;23;20435;-49
2021/12/25 12:39:11;;;;;;;5.93;0.60;;;;;;;6.46;100.00;98777.78;6057772;23;20033;-49
2021/12/25 12:42:15;;;;;;;1.08;0.40;;;;;;;6.46;100.00;98774.25;6117449;23;20029;-49
2021/12/25 12:45:24;;;;;;;6.88;0.80;;;;;;;6.44;100.00;98779.50;6091041;23;20024;-50
2021/12/25 12:48:27;;;;;;;0.25;0.25;;;;;;;6.44;100.00;98771.19;6148090;23;20064;-49
2021/12/25 12:51:32;;;;;;;14.18;1.08;;;;;;;6.46;100.00;98771.50;6150594;23;20032;-49
2021/12/25 12:54:57;;;;;;;0.20;0.20;;;;;;;6.53;100.00;98758.06;6150384;23;20481;-49
2021/12/25 12:58:16;;;;;;;0.20;0.20;;;;;;;6.56;100.00;98761.88;6160901;23;20052;-49
2021/12/25 13:01:20;;;;;;;0.57;0.30;;;;;;;6.50;100.00;98750.72;6119613;23;20028;-49
2021/12/25 13:04:24;;;;;;;25.50;1.38;;;;;;;6.54;100.00;98740.22;6103775;23;20029;-49
2021/12/25 13:07:31;;;;;;;1.10;1.00;;;;;;;6.59;100.00;98741.56;6209460;23;20036;-49
2021/12/25 13:10:42;;;;;;;0.40;0.40;;;;;;;6.63;100.00;98733.84;6193830;23;20047;-49
2021/12/25 13:14:00;;;;;;;3.20;1.13;;;;;;;6.62;100.00;98740.63;6130768;23;20102;-49
2021/12/25 13:17:07;;;;;;;1.55;0.70;;;;;;;6.62;100.00;98740.63;6140089;23;20036;-49
2021/12/25 13:20:11;;;;;;;0.70;0.70;;;;;;;6.68;100.00;98727.66;6182262;23;21128;-53
2021/12/25 13:23:24;;;;;;;1.23;0.30;;;;;;;6.66;100.00;98727.34;6137171;23;20040;-50
2021/12/25 13:26:37;;;;;;;1.25;0.55;;;;;;;6.64;100.00;98722.31;6125968;23;20024;-49
2021/12/25 13:29:40;;;;;;;8.20;2.08;;;;;;;6.61;100.00;98728.00;6158125;23;20036;-49
2021/12/25 13:32:44;;;;;;;5.40;0.98;;;;;;;6.56;100.00;98725.94;6128983;23;20483;-50
2021/12/25 13:36:02;;;;;;;18.25;0.90;;;;;;;6.47;100.00;98726.00;6121950;23;20029;-49
2021/12/25 13:39:08;;;;;;;3.67;0.63;;;;;;;6.52;100.00;98725.34;6134506;23;20469;-49
2021/12/25 13:42:14;;;;;;;0.20;0.20;;;;;;;6.54;100.00;98700.75;6149465;23;20024;-49
2021/12/25 13:45:20;;;;;;;1.23;0.40;;;;;;;6.55;100.00;98724.41;6148828;23;20027;-50
2021/12/25 13:48:23;;;;;;;1.63;0.50;;;;;;;6.62;100.00;98735.09;6166442;23;20040;-49
2021/12/25 13:51:27;;;;;;;0.98;0.73;;;;;;;6.67;100.00;98732.41;6150837;23;20033;-49
2021/12/25 13:54:32;;;;;;;6.90;1.08;;;;;;;6.73;100.00;98746.34;6141862;23;20033;-49
2021/12/25 13:57:48;;;;;;;32.70;14.23;;;;;;;6.71;100.00;98732.97;6157075;23;20032;-49
2021/12/25 14:00:52;;;;;;;15.75;6.28;;;;;;;6.78;100.00;98742.91;6112525;23;20092;-49
2021/12/25 14:04:10;;;;;;;0.73;0.73;;;;;;;6.73;100.00;98729.75;6091845;23;20046;-49
2021/12/25 14:07:16;;;;;;;7.32;1.08;;;;;;;6.73;100.00;98738.06;6210675;23;20156;-49
2021/12/25 14:10:23;;;;;;;16.10;1.38;;;;;;;6.74;100.00;98740.34;6210540;23;20027;-49
2021/12/25 14:13:30;;;;;;;2.63;0.80;;;;;;;6.73;100.00;98727.00;6152668;23;20029;-49
2021/12/25 14:16:47;;;;;;;;;;;;;;;;;;;;;
2021/12/25 14:20:10;;;;;;;1.98;0.82;;;;;;;6.76;100.00;98737.84;6084911;23;20028;-49
2021/12/25 14:23:38;;;;;;;;;;;;;;;;;;;;;
2021/12/25 14:26:43;;;;;;;0.50;0.35;;;;;;;6.72;100.00;98722.69;6120494;23;20036;-53
2021/12/25 14:29:46;;;;;;;7.07;0.43;;;;;;;6.74;100.00;98732.03;6076047;23;20574;-49
2021/12/25 14:32:59;;;;;;;3.80;0.68;;;;;;;6.70;100.00;98731.47;6093313;23;20033;-49
2021/12/25 14:36:31;;;;;;;0.63;0.40;;;;;;;6.67;100.00;98718.56;6035878;23;20470;-49
2021/12/25 14:40:11;;;;;;;6.72;0.80;;;;;;;6.72;100.00;98717.91;5979292;23;20030;-49
2021/12/25 14:43:10;;;;;;;0.20;0.20;;;;;;;6.72;100.00;98720.69;5133869;27;20367;-48
2021/12/25 14:46:20;;;;;;;0.32;0.32;;;;;;;6.71;100.00;98707.34;5028368;28;20510;-49
2021/12/25 14:49:44;;;;;;;0.10;0.10;;;;;;;6.62;100.00;98707.44;4998400;28;20056;-49
2021/12/25 14:54:01;;;;;;;1.15;0.50;;;;;;;6.47;100.00;98695.59;4980443;28;20072;-47
2021/12/25 14:57:48;;;;;;;0.32;0.32;;;;;;;6.52;100.00;98698.44;4950534;28;20066;-49
2021/12/25 15:01:29;;;;;;;0.32;0.25;;;;;;;6.53;100.00;98705.53;4846981;29;20063;-47
2021/12/25 15:08:59;;;;;;;1.30;1.20;;;;;;;6.60;100.00;98732.81;4953283;28;20054;-48
2021/12/25 15:12:48;;;;;;;1.55;0.68;;;;;;;6.62;100.00;98732.31;4945262;28;20198;-47
2021/12/25 15:15:59;;;;;;;0.95;0.55;;;;;;;6.62;100.00;98729.56;4871995;29;20048;-47
2021/12/25 15:19:05;;;;;;;10.68;1.15;;;;;;;6.66;100.00;98724.59;4980609;28;20536;-48
2021/12/25 15:22:23;;;;;;;5.47;0.63;;;;;;;6.69;100.00;98723.66;4890606;29;20047;-48
2021/12/25 15:26:03;;;;;;;0.75;0.38;;;;;;;6.65;100.00;98723.06;4807231;29;20076;-47
2021/12/25 15:28:59;;;;;;;1.23;0.70;;;;;;;6.65;100.00;98731.34;5097926;27;20370;-47
2021/12/25 15:32:11;;;;;;;0.52;0.30;;;;;;;6.64;100.00;98721.53;4978131;28;20544;-47
2021/12/25 15:35:29;;;;;;;1.42;1.00;;;;;;;6.65;100.00;98734.88;4956445;28;20164;-47
2021/12/25 15:38:48;;;;;;;5.57;0.93;;;;;;;6.67;100.00;98721.34;4862437;29;20075;-47
2021/12/25 15:50:51;;;;;;;0.85;0.40;;;;;;;6.70;100.00;98700.25;5046430;28;20059;-47
2021/12/25 16:00:42;;;;;;;0.22;0.22;;;;;;;6.68;100.00;98697.22;5041054;22;20050;-92
2021/12/25 16:03:46;;;;;;;0.50;0.50;;;;;;;6.66;100.00;98711.53;5029769;28;20052;-92
2021/12/25 16:06:50;;;;;;;11.90;0.90;;;;;;;6.57;100.00;98708.09;5031277;28;20052;-91
2021/12/25 16:09:53;;;;;;;2.22;1.58;;;;;;;6.56;100.00;98706.56;5027407;28;20057;-91
2021/12/25 16:12:57;;;;;;;12.38;2.20;;;;;;;6.53;100.00;98691.69;5002862;28;20057;-89
2021/12/25 16:16:01;;;;;;;11.85;5.90;;;;;;;6.57;100.00;98708.09;5016807;28;20056;-89
2021/12/25 16:19:04;;;;;;;25.70;7.97;;;;;;;6.60;100.00;98707.13;5012078;28;20045;-89
2021/12/25 16:22:09;;;;;;;79.93;24.63;;;;;;;6.61;100.00;98716.94;5026995;28;20057;-88
2021/12/25 16:25:14;;;;;;;7.82;4.15;;;;;;;6.63;100.00;98708.94;5011501;28;20057;-89
2021/12/25 16:28:17;;;;;;;2.50;1.45;;;;;;;6.59;100.00;98691.78;5001562;28;20053;-89
2021/12/25 16:31:21;;;;;;;2.50;1.15;;;;;;;6.64;100.00;98697.41;5016935;28;20513;-89
2021/12/25 16:34:27;;;;;;;1.98;1.88;;;;;;;6.59;100.00;98694.53;5002138;28;20057;-89
2021/12/25 16:37:31;;;;;;;2.15;1.00;;;;;;;6.57;100.00;98689.50;5010527;28;20044;-90
2021/12/25 16:40:36;;;;;;;1.20;0.95;;;;;;;6.53;100.00;98682.63;5024406;28;20069;-89
2021/12/25 16:44:27;;;;;;;22.10;2.80;;;;;;;6.50;100.00;98694.63;5003958;28;20053;-90
2021/12/25 16:54:04;;;;;;;;;;;;;;;;;;;;;
2021/12/25 16:57:33;;;;;;;2.28;1.05;;;;;;;6.36;100.00;98690.63;4886779;29;20062;-50
2021/12/25 17:04:49;;;;;;;1.50;0.80;;;;;;;6.33;100.00;98690.78;4888506;29;20067;-47
2021/12/25 17:07:50;;;;;;;0.65;0.65;;;;;;;6.36;100.00;98698.16;5009781;28;20562;-48
2021/12/25 17:10:54;;;;;;;2.30;0.55;;;;;;;6.31;100.00;98709.88;4971066;28;20082;-48
2021/12/25 17:13:57;;;;;;;0.47;0.13;;;;;;;6.30;100.00;98689.78;4945746;28;20060;-48
2021/12/25 17:17:03;;;;;;;2.35;0.88;;;;;;;6.27;100.00;98693.47;4989702;28;20199;-48
2021/12/25 17:20:18;;;;;;;0.75;0.75;;;;;;;6.27;100.00;98687.19;4971714;28;20072;-48
2021/12/25 17:23:31;;;;;;;15.10;1.92;;;;;;;6.28;100.00;98688.72;4928289;29;20411;-47
2021/12/25 17:30:22;;;;;;;1.00;0.43;;;;;;;6.28;100.00;98700.50;4975537;23;20055;-48
2021/12/25 17:41:11;;;;;;;1.48;0.50;;;;;;;6.38;100.00;98688.16;1429984;26;20051;-47
2021/12/25 18:00:15;;;;;;;1.77;0.83;;;;;;;6.40;100.00;98677.38;5008860;23;20095;-47
2021/12/25 18:03:48;;;;;;;1.38;0.60;;;;;;;6.40;100.00;98679.38;4909040;28;20307;-47
2021/12/25 18:06:55;;;;;;;3.17;0.77;;;;;;;6.41;100.00;98675.38;4973163;28;20053;-47
2021/12/25 18:09:59;;;;;;;5.18;0.68;;;;;;;6.46;100.00;98689.28;4885667;28;20062;-47
2021/12/25 18:13:07;;;;;;;0.63;0.30;;;;;;;6.40;100.00;98687.66;4930913;28;20061;-47
2021/12/25 18:16:11;;;;;;;0.95;0.82;;;;;;;6.35;100.00;98689.09;4987238;28;20069;-45
2021/12/25 18:19:14;;;;;;;0.20;0.20;;;;;;;6.26;100.00;98680.13;4978717;28;20615;-45
2021/12/25 18:22:18;;;;;;;1.35;1.20;;;;;;;6.25;100.00;98673.84;4886078;29;20079;-45
2021/12/25 18:37:00;;;;;;;0.60;0.60;;;;;;;6.17;100.00;98658.88;5082679;23;20065;-46